Time;durP1;ratioP1;P1;durP2;ratioP2;P2;SDS_P1;SDS_P2;PMS_P1;PMS_P2;Temp;Humidity;BMP_temperature;BMP_pressure;BME280_temperature;BME280_humidity;BME280_pressure;Samples;Min_cycle;Max_cycle;Signal;HPM_P1;HPM_P2
2024/02/21 00:01:49;;;;;;;12.93;2.75;;;9.80;99.90;;;;;;5017020;28;20049;-65
2024/02/21 00:04:16;;;;;;;17.13;2.85;;;9.80;99.90;;;;;;5015675;28;20068;-65
2024/02/21 00:06:43;;;;;;;18.40;3.45;;;9.80;99.90;;;;;;5016951;28;20394;-65
2024/02/21 00:09:10;;;;;;;19.83;4.40;;;9.80;99.90;;;;;;5016697;28;20030;-65
2024/02/21 00:11:36;;;;;;;22.88;3.28;;;9.80;99.90;;;;;;5016418;28;20486;-66
2024/02/21 00:14:03;;;;;;;10.55;3.15;;;9.80;99.90;;;;;;5014972;28;20046;-65
2024/02/21 00:16:30;;;;;;;15.30;2.63;;;9.80;99.90;;;;;;5016500;28;20450;-65
2024/02/21 00:18:57;;;;;;;17.80;3.35;;;9.80;99.90;;;;;;5016474;28;20041;-65
2024/02/21 00:21:24;;;;;;;19.85;3.38;;;9.80;99.90;;;;;;5016110;28;20050;-66
2024/02/21 00:23:50;;;;;;;14.20;2.78;;;9.80;99.90;;;;;;5016194;28;20121;-64
2024/02/21 00:26:17;;;;;;;17.50;2.83;;;9.80;99.90;;;;;;5016016;28;20042;-65
2024/02/21 00:28:44;;;;;;;14.18;2.72;;;9.80;99.90;;;;;;5016122;28;20128;-64
2024/02/21 00:31:11;;;;;;;13.68;3.15;;;9.90;99.90;;;;;;5014720;28;20089;-65
2024/02/21 00:33:38;;;;;;;15.65;2.75;;;9.90;99.90;;;;;;5027583;28;20439;-65
2024/02/21 00:36:05;;;;;;;13.80;2.70;;;9.90;99.90;;;;;;5055435;28;20077;-64
2024/02/21 00:38:31;;;;;;;14.68;2.60;;;9.90;99.90;;;;;;5055765;28;20048;-64
2024/02/21 00:40:58;;;;;;;16.00;2.85;;;9.90;99.90;;;;;;5055476;28;20048;-64
2024/02/21 00:43:25;;;;;;;16.55;2.88;;;9.90;99.90;;;;;;5055635;28;20397;-65
2024/02/21 00:45:52;;;;;;;19.15;2.97;;;10.00;99.90;;;;;;5054679;28;20047;-64
2024/02/21 00:48:19;;;;;;;20.52;3.53;;;10.00;99.90;;;;;;5055229;28;20033;-65
2024/02/21 00:50:46;;;;;;;17.90;2.92;;;9.90;99.90;;;;;;5054620;28;20037;-65
2024/02/21 00:53:12;;;;;;;14.88;2.85;;;10.00;99.90;;;;;;5055374;28;20040;-64
2024/02/21 00:55:40;;;;;;;15.13;3.05;;;10.00;99.90;;;;;;5055324;28;20040;-66
2024/02/21 00:58:07;;;;;;;14.07;2.85;;;9.90;99.90;;;;;;5054269;28;20144;-64
2024/02/21 01:00:34;;;;;;;15.77;3.13;;;9.90;99.90;;;;;;5055216;28;20048;-65
2024/02/21 01:03:00;;;;;;;13.82;3.13;;;9.90;99.90;;;;;;5055442;28;20071;-64
2024/02/21 01:05:29;;;;;;;13.95;2.60;;;9.90;99.90;;;;;;5055492;28;20106;-65
2024/02/21 01:07:55;;;;;;;12.98;3.30;;;9.90;99.90;;;;;;5053673;28;20052;-64
2024/02/21 01:10:22;;;;;;;21.63;3.33;;;9.90;99.90;;;;;;5055557;28;20119;-66
2024/02/21 01:12:49;;;;;;;18.13;2.97;;;9.90;99.90;;;;;;5055466;28;20072;-65
2024/02/21 01:15:16;;;;;;;14.10;2.95;;;9.90;99.90;;;;;;5055003;28;20053;-65
2024/02/21 01:17:43;;;;;;;15.63;2.85;;;9.90;99.90;;;;;;5055100;28;20177;-65
2024/02/21 01:20:10;;;;;;;16.25;3.05;;;9.90;99.90;;;;;;5055406;28;20063;-64
2024/02/21 01:22:37;;;;;;;16.02;3.33;;;9.90;99.90;;;;;;5054785;28;20037;-65
2024/02/21 01:25:04;;;;;;;18.88;4.22;;;9.90;99.90;;;;;;5053657;28;20087;-64
2024/02/21 01:27:30;;;;;;;17.85;3.20;;;9.80;99.90;;;;;;5055126;28;20048;-64
2024/02/21 01:29:57;;;;;;;14.88;3.20;;;9.90;99.90;;;;;;5055092;28;20037;-64
2024/02/21 01:32:24;;;;;;;20.95;4.22;;;9.90;99.90;;;;;;5055130;28;20041;-65
2024/02/21 01:34:51;;;;;;;19.13;3.22;;;9.80;99.90;;;;;;5054731;28;20029;-64
2024/02/21 01:37:18;;;;;;;19.88;3.15;;;9.80;99.90;;;;;;5054562;28;20135;-65
2024/02/21 01:39:45;;;;;;;15.18;2.72;;;9.80;99.90;;;;;;5054274;28;20556;-65
2024/02/21 01:42:12;;;;;;;15.75;3.47;;;9.80;99.90;;;;;;5054303;28;20048;-64
2024/02/21 01:44:39;;;;;;;19.13;3.03;;;9.80;99.90;;;;;;5054312;28;20041;-64
2024/02/21 01:47:05;;;;;;;13.82;2.80;;;9.80;99.90;;;;;;5054345;28;20052;-64
2024/02/21 01:49:32;;;;;;;15.55;3.70;;;9.80;99.90;;;;;;5054509;28;20041;-64
2024/02/21 01:51:59;;;;;;;16.38;3.10;;;9.80;99.90;;;;;;5054361;28;20041;-64
2024/02/21 01:54:28;;;;;;;16.05;3.40;;;9.80;99.90;;;;;;5054584;28;20037;-64
2024/02/21 01:56:55;;;;;;;16.95;2.83;;;9.80;99.90;;;;;;5052595;28;20103;-65
2024/02/21 01:59:22;;;;;;;17.52;3.50;;;9.80;99.90;;;;;;5054343;28;20099;-64
2024/02/21 02:01:49;;;;;;;19.52;3.85;;;9.80;99.90;;;;;;5053963;28;20045;-64
2024/02/21 02:04:16;;;;;;;17.40;3.42;;;9.80;99.90;;;;;;5052945;28;20049;-64
2024/02/21 02:06:43;;;;;;;17.55;3.38;;;9.90;99.90;;;;;;5053899;28;20114;-65
2024/02/21 02:09:09;;;;;;;14.95;2.83;;;9.90;99.90;;;;;;5054024;28;20040;-64
2024/02/21 02:11:36;;;;;;;15.05;3.08;;;9.90;99.90;;;;;;5054228;28;20129;-64
2024/02/21 02:14:03;;;;;;;14.63;3.05;;;9.90;99.90;;;;;;5053991;28;20045;-64
2024/02/21 02:16:30;;;;;;;16.88;2.95;;;9.90;99.90;;;;;;5053689;28;20051;-65
2024/02/21 02:18:57;;;;;;;23.30;3.13;;;9.90;99.90;;;;;;5053446;28;20115;-65
2024/02/21 02:21:24;;;;;;;17.80;2.97;;;9.90;99.90;;;;;;5053606;28;20128;-64
2024/02/21 02:23:51;;;;;;;19.20;3.95;;;9.90;99.90;;;;;;5053963;28;20041;-64
2024/02/21 02:26:17;;;;;;;13.52;3.65;;;9.90;99.90;;;;;;5054049;28;20529;-64
2024/02/21 02:28:44;;;;;;;18.70;3.33;;;9.90;99.90;;;;;;5054039;28;20048;-64
2024/02/21 02:31:11;;;;;;;20.02;3.05;;;9.90;99.90;;;;;;5053410;28;20040;-64
2024/02/21 02:33:38;;;;;;;24.13;3.35;;;9.90;99.90;;;;;;5053805;28;20115;-65
2024/02/21 02:36:05;;;;;;;21.60;4.28;;;9.90;99.90;;;;;;5052070;28;20095;-64
2024/02/21 02:38:31;;;;;;;17.52;3.65;;;9.90;99.90;;;;;;5053665;28;20045;-65
2024/02/21 02:40:58;;;;;;;16.30;3.00;;;9.90;99.90;;;;;;5053193;28;20045;-65
2024/02/21 02:43:25;;;;;;;18.27;3.53;;;9.90;99.90;;;;;;5053679;28;20052;-64
2024/02/21 02:45:52;;;;;;;15.57;3.28;;;9.90;99.90;;;;;;5053500;28;20045;-64
2024/02/21 02:48:19;;;;;;;20.35;4.05;;;9.90;99.90;;;;;;5053374;28;20047;-65
2024/02/21 02:50:46;;;;;;;16.45;3.15;;;9.90;99.90;;;;;;5053840;28;20037;-65
2024/02/21 02:53:13;;;;;;;16.60;3.83;;;10.00;99.90;;;;;;5053832;28;20041;-65
2024/02/21 02:55:40;;;;;;;16.45;3.13;;;10.00;99.90;;;;;;5053021;28;20044;-64
2024/02/21 02:58:08;;;;;;;14.57;2.85;;;9.90;99.90;;;;;;5053417;28;20044;-64
2024/02/21 03:00:36;;;;;;;17.20;3.38;;;10.00;99.90;;;;;;5053684;28;20131;-65
2024/02/21 03:03:06;;;;;;;12.45;2.60;;;10.00;99.90;;;;;;5053348;28;20048;-64
2024/02/21 03:05:33;;;;;;;18.40;3.45;;;9.90;99.90;;;;;;5053363;28;20076;-64
2024/02/21 03:07:59;;;;;;;17.15;3.17;;;9.90;99.90;;;;;;5051661;28;20036;-64
2024/02/21 03:10:26;;;;;;;21.05;3.88;;;9.90;99.90;;;;;;5052125;28;20112;-64
2024/02/21 03:12:53;;;;;;;14.43;2.90;;;9.90;99.90;;;;;;5053268;28;20117;-65
2024/02/21 03:15:20;;;;;;;22.25;3.22;;;9.90;99.90;;;;;;5053103;28;20451;-64
2024/02/21 03:17:47;;;;;;;14.80;3.08;;;9.90;99.90;;;;;;5053289;28;20037;-64
2024/02/21 03:20:14;;;;;;;14.18;3.45;;;9.90;99.90;;;;;;5053366;28;20102;-64
2024/02/21 03:22:41;;;;;;;15.45;2.85;;;9.80;99.90;;;;;;5052985;28;20040;-64
2024/02/21 03:25:08;;;;;;;18.75;3.25;;;9.80;99.90;;;;;;5053181;28;20041;-65
2024/02/21 03:27:35;;;;;;;17.30;2.95;;;9.80;99.90;;;;;;5051486;28;20147;-65
2024/02/21 03:30:02;;;;;;;18.02;2.58;;;9.80;99.90;;;;;;5052846;28;20379;-65
2024/02/21 03:32:28;;;;;;;19.83;3.78;;;9.80;99.90;;;;;;5055266;28;20486;-65
2024/02/21 03:34:56;;;;;;;17.20;3.15;;;9.80;99.90;;;;;;5055365;28;20041;-64
2024/02/21 03:37:23;;;;;;;13.70;3.03;;;9.80;99.90;;;;;;5056696;28;20497;-65
2024/02/21 03:39:50;;;;;;;13.85;3.22;;;9.80;99.90;;;;;;5056861;28;20053;-64
2024/02/21 03:42:17;;;;;;;18.52;2.75;;;9.80;99.90;;;;;;5056802;28;20098;-64
2024/02/21 03:44:44;;;;;;;14.45;2.55;;;9.80;99.90;;;;;;5056461;28;20045;-65
2024/02/21 03:47:11;;;;;;;13.30;2.80;;;9.80;99.90;;;;;;5056637;28;20037;-64
2024/02/21 03:49:38;;;;;;;13.57;3.05;;;9.80;99.90;;;;;;5056877;28;20136;-64
2024/02/21 03:52:05;;;;;;;12.38;2.75;;;9.80;99.90;;;;;;5057003;28;20041;-64
2024/02/21 03:54:32;;;;;;;12.27;2.92;;;9.80;99.90;;;;;;5056587;28;20048;-64
2024/02/21 03:56:59;;;;;;;11.95;2.53;;;9.70;99.90;;;;;;5056631;28;20136;-64
2024/02/21 03:59:26;;;;;;;12.77;2.50;;;9.80;99.90;;;;;;5055138;28;20083;-64
2024/02/21 04:01:53;;;;;;;11.27;2.70;;;9.70;99.90;;;;;;5056542;28;20033;-64
2024/02/21 04:04:20;;;;;;;10.75;2.40;;;9.70;99.90;;;;;;5056515;28;20040;-65
2024/02/21 04:06:47;;;;;;;10.38;2.60;;;9.70;99.90;;;;;;5056149;28;20469;-65
2024/02/21 04:09:14;;;;;;;11.70;2.67;;;9.70;99.90;;;;;;5056307;28;20087;-64
2024/02/21 04:11:40;;;;;;;10.88;2.38;;;9.70;99.90;;;;;;5056232;28;20044;-65
2024/02/21 04:14:07;;;;;;;16.35;3.15;;;9.70;99.90;;;;;;5056090;28;20045;-64
2024/02/21 04:16:34;;;;;;;13.82;2.70;;;9.70;99.90;;;;;;5056127;28;20044;-64
2024/02/21 04:19:02;;;;;;;7.78;2.00;;;9.70;99.90;;;;;;5056526;28;20114;-65
2024/02/21 04:21:29;;;;;;;15.73;2.50;;;9.70;99.90;;;;;;5055965;28;20115;-64
2024/02/21 04:23:56;;;;;;;11.82;2.10;;;9.70;99.90;;;;;;5056139;28;20045;-64
2024/02/21 04:26:22;;;;;;;13.25;2.55;;;9.70;99.90;;;;;;5056147;28;20049;-64
2024/02/21 04:28:49;;;;;;;16.13;2.78;;;9.60;99.90;;;;;;5054579;28;20052;-64
2024/02/21 04:31:16;;;;;;;12.07;2.30;;;9.60;99.90;;;;;;5056321;28;20033;-65
2024/02/21 04:33:43;;;;;;;8.98;2.20;;;9.60;99.90;;;;;;5056471;28;20041;-65
2024/02/21 04:36:10;;;;;;;9.88;2.50;;;9.60;99.90;;;;;;5055973;28;20124;-65
2024/02/21 04:38:38;;;;;;;13.20;2.65;;;9.60;99.90;;;;;;5054646;28;20443;-64
2024/02/21 04:41:05;;;;;;;16.83;2.70;;;9.60;99.90;;;;;;5038417;28;20110;-65
2024/02/21 04:43:32;;;;;;;11.23;2.20;;;9.60;99.90;;;;;;5055499;28;20133;-64
2024/02/21 04:46:00;;;;;;;12.57;2.30;;;9.60;99.90;;;;;;5056164;28;20041;-64
2024/02/21 04:48:27;;;;;;;10.98;2.63;;;9.60;99.90;;;;;;5056072;28;20068;-65
2024/02/21 04:50:53;;;;;;;11.13;2.33;;;9.60;99.90;;;;;;5055601;28;20041;-65
2024/02/21 04:53:20;;;;;;;13.73;2.30;;;9.60;99.90;;;;;;5055670;28;20443;-64
2024/02/21 04:55:47;;;;;;;14.68;2.45;;;9.60;99.90;;;;;;5055890;28;20041;-65
2024/02/21 04:58:14;;;;;;;14.65;2.35;;;9.60;99.90;;;;;;5055842;28;20041;-64
2024/02/21 05:00:41;;;;;;;10.27;2.35;;;9.60;99.90;;;;;;5055909;28;20075;-64
2024/02/21 05:03:08;;;;;;;10.57;2.40;;;9.60;99.90;;;;;;5055258;28;20544;-64
2024/02/21 05:05:35;;;;;;;16.80;2.40;;;9.60;99.90;;;;;;5055558;28;20045;-64
2024/02/21 05:08:02;;;;;;;12.57;2.40;;;9.60;99.90;;;;;;5055496;28;20045;-64
2024/02/21 05:10:29;;;;;;;11.25;2.45;;;9.60;99.90;;;;;;5053706;28;20051;-64
2024/02/21 05:12:56;;;;;;;10.93;2.67;;;9.50;99.90;;;;;;5055523;28;20064;-64
2024/02/21 05:15:23;;;;;;;10.05;2.20;;;9.50;99.90;;;;;;5055115;28;20143;-64
2024/02/21 05:17:49;;;;;;;8.80;2.05;;;9.50;99.90;;;;;;5053815;28;20512;-65
2024/02/21 05:20:16;;;;;;;8.95;2.10;;;9.50;99.90;;;;;;5055237;28;20045;-65
2024/02/21 05:22:43;;;;;;;7.57;1.85;;;9.50;99.90;;;;;;5054893;28;20044;-64
2024/02/21 05:25:10;;;;;;;8.10;2.00;;;9.50;99.90;;;;;;5055014;28;20401;-65
2024/02/21 05:27:38;;;;;;;9.65;2.30;;;9.50;99.90;;;;;;5054777;28;20041;-64
2024/02/21 05:30:06;;;;;;;8.05;2.00;;;9.50;99.90;;;;;;5055111;28;20450;-64
2024/02/21 05:32:33;;;;;;;13.07;3.47;;;9.50;99.90;;;;;;5054634;28;20037;-65
2024/02/21 05:35:00;;;;;;;11.55;2.17;;;9.50;99.90;;;;;;5053450;28;20041;-64
2024/02/21 05:37:27;;;;;;;11.45;2.60;;;9.50;99.90;;;;;;5054500;28;20036;-64
2024/02/21 05:39:54;;;;;;;12.20;2.10;;;9.50;99.90;;;;;;5054765;28;20509;-64
2024/02/21 05:42:21;;;;;;;11.23;2.40;;;9.50;99.90;;;;;;5053668;28;20041;-64
2024/02/21 05:44:47;;;;;;;15.50;2.20;;;9.50;99.90;;;;;;5054472;28;20052;-64
2024/02/21 05:47:15;;;;;;;13.48;2.30;;;9.50;99.90;;;;;;5054434;28;20045;-64
2024/02/21 05:49:42;;;;;;;14.43;2.63;;;9.50;99.90;;;;;;5054452;28;20048;-64
2024/02/21 05:52:09;;;;;;;8.68;2.30;;;9.50;99.90;;;;;;5053323;28;20045;-63
2024/02/21 05:54:36;;;;;;;8.90;2.60;;;9.40;99.90;;;;;;5053716;28;20060;-62
2024/02/21 05:57:03;;;;;;;9.90;2.72;;;9.40;99.90;;;;;;5053893;28;20084;-63
2024/02/21 05:59:30;;;;;;;7.70;1.95;;;9.30;99.90;;;;;;5054104;28;20060;-63
2024/02/21 06:02:03;;;;;;;7.93;2.33;;;9.30;99.90;;;;;;5054203;28;20051;-63
2024/02/21 06:04:29;;;;;;;11.07;2.15;;;9.30;99.90;;;;;;5054326;28;20049;-63
2024/02/21 06:06:56;;;;;;;11.88;2.60;;;9.20;99.90;;;;;;5054370;28;20041;-63
2024/02/21 06:09:23;;;;;;;9.85;1.90;;;9.20;99.90;;;;;;5054063;28;20413;-63
2024/02/21 06:11:50;;;;;;;10.02;2.38;;;9.20;99.90;;;;;;5054040;28;20083;-63
2024/02/21 06:14:17;;;;;;;8.93;2.35;;;9.10;99.90;;;;;;5053621;28;20124;-63
2024/02/21 06:16:44;;;;;;;8.63;2.60;;;9.10;99.90;;;;;;5039078;28;20180;-63
2024/02/21 06:19:11;;;;;;;9.15;2.03;;;9.10;99.90;;;;;;5032941;28;20072;-63
2024/02/21 06:21:38;;;;;;;8.50;1.80;;;9.10;99.90;;;;;;5034277;28;20041;-63
2024/02/21 06:24:04;;;;;;;8.20;1.75;;;9.10;99.90;;;;;;5033803;28;20487;-63
2024/02/21 06:26:31;;;;;;;9.07;2.03;;;9.10;99.90;;;;;;5033692;28;20052;-63
2024/02/21 06:28:59;;;;;;;10.27;1.85;;;9.10;99.90;;;;;;5034195;28;20046;-63
2024/02/21 06:31:27;;;;;;;6.10;1.88;;;9.10;99.90;;;;;;5033762;28;20060;-63
2024/02/21 06:33:53;;;;;;;10.80;2.03;;;9.00;99.90;;;;;;5034182;28;20045;-63
2024/02/21 06:36:20;;;;;;;7.07;1.27;;;9.00;99.90;;;;;;5033532;28;20045;-63
2024/02/21 06:38:47;;;;;;;3.90;1.40;;;9.00;99.90;;;;;;5033560;28;20049;-63
2024/02/21 06:41:14;;;;;;;7.75;1.70;;;9.10;99.90;;;;;;5033969;28;20080;-63
2024/02/21 06:43:41;;;;;;;5.78;1.58;;;9.10;99.90;;;;;;5033734;28;20055;-64
2024/02/21 06:46:07;;;;;;;4.57;1.83;;;9.00;99.90;;;;;;5033552;28;20051;-63
2024/02/21 06:48:34;;;;;;;4.65;1.50;;;9.00;99.90;;;;;;5033877;28;20044;-64
2024/02/21 06:51:01;;;;;;;4.03;1.30;;;9.00;99.90;;;;;;5033434;28;20041;-63
2024/02/21 06:53:28;;;;;;;6.07;1.40;;;9.00;99.90;;;;;;5033860;28;20466;-64
2024/02/21 06:55:55;;;;;;;5.57;1.40;;;9.00;99.90;;;;;;5033503;28;20478;-64
2024/02/21 06:58:21;;;;;;;5.15;1.63;;;9.00;99.90;;;;;;5032146;28;20402;-63
2024/02/21 07:00:48;;;;;;;6.93;1.40;;;9.00;99.90;;;;;;5033764;28;20478;-63
2024/02/21 07:03:15;;;;;;;4.13;1.10;;;9.00;99.90;;;;;;5033809;28;20041;-64
2024/02/21 07:05:42;;;;;;;4.63;1.05;;;9.00;99.90;;;;;;5031821;28;20052;-64
2024/02/21 07:08:09;;;;;;;5.68;1.20;;;9.00;99.90;;;;;;5033198;28;20045;-64
2024/02/21 07:10:36;;;;;;;3.85;1.17;;;9.00;99.90;;;;;;5033354;28;20107;-64
2024/02/21 07:13:03;;;;;;;4.78;1.10;;;9.00;99.90;;;;;;5033484;28;20053;-63
2024/02/21 07:15:30;;;;;;;4.63;1.13;;;9.00;99.90;;;;;;5032719;28;20422;-63
2024/02/21 07:17:57;;;;;;;2.55;0.85;;;9.00;99.90;;;;;;5033193;28;20045;-63
2024/02/21 07:20:24;;;;;;;4.20;1.50;;;9.00;99.90;;;;;;5033099;28;20041;-63
2024/02/21 07:22:51;;;;;;;5.45;1.00;;;9.00;99.90;;;;;;5033481;28;20129;-64
2024/02/21 07:25:18;;;;;;;6.82;1.30;;;9.00;99.90;;;;;;5032934;28;20053;-63
2024/02/21 07:27:45;;;;;;;5.85;1.55;;;9.00;99.90;;;;;;5032934;28;20120;-64
2024/02/21 07:30:11;;;;;;;4.25;1.20;;;9.00;99.90;;;;;;5033020;28;20513;-64
2024/02/21 07:32:43;;;;;;;5.47;1.30;;;9.10;99.90;;;;;;5032878;28;20051;-64
2024/02/21 07:35:11;;;;;;;4.20;1.25;;;9.00;99.90;;;;;;5031460;28;20499;-64
2024/02/21 07:37:38;;;;;;;3.75;1.50;;;9.00;99.90;;;;;;5033182;28;20428;-64
2024/02/21 07:40:05;;;;;;;5.43;1.10;;;9.00;99.90;;;;;;5031856;28;20470;-64
2024/02/21 07:42:32;;;;;;;6.35;1.48;;;9.10;99.90;;;;;;5033152;28;20436;-64
2024/02/21 07:44:59;;;;;;;4.68;1.25;;;9.10;99.90;;;;;;5032960;28;20429;-63
2024/02/21 07:47:26;;;;;;;5.57;1.60;;;9.10;99.90;;;;;;5032652;28;20045;-63
2024/02/21 07:49:53;;;;;;;4.75;1.42;;;9.10;99.90;;;;;;5031457;28;20476;-64
2024/02/21 07:52:19;;;;;;;6.40;1.50;;;9.10;99.90;;;;;;5033036;28;20091;-63
2024/02/21 07:54:46;;;;;;;5.10;1.45;;;9.10;99.90;;;;;;5032730;28;20525;-63
2024/02/21 07:57:13;;;;;;;7.28;1.70;;;9.10;99.90;;;;;;5033290;28;20045;-63
2024/02/21 07:59:40;;;;;;;9.88;2.20;;;9.10;99.90;;;;;;5032887;28;20095;-65
2024/02/21 08:02:07;;;;;;;5.30;1.80;;;9.20;99.90;;;;;;5033234;28;20045;-65
2024/02/21 08:04:34;;;;;;;5.78;1.60;;;9.20;99.90;;;;;;5032666;28;20046;-65
2024/02/21 08:07:02;;;;;;;7.53;1.90;;;9.20;99.90;;;;;;5032516;28;20053;-65
2024/02/21 08:09:29;;;;;;;7.63;1.98;;;9.20;99.90;;;;;;5032592;28;20056;-65
2024/02/21 08:11:56;;;;;;;7.22;1.67;;;9.20;99.90;;;;;;5033019;28;20047;-65
2024/02/21 08:14:24;;;;;;;7.20;1.80;;;9.20;99.90;;;;;;5032750;28;20409;-65
2024/02/21 08:16:53;;;;;;;9.73;1.95;;;9.20;99.90;;;;;;5032523;28;20041;-65
2024/02/21 08:19:20;;;;;;;6.68;1.73;;;9.20;99.90;;;;;;5036534;28;20054;-65
2024/02/21 08:21:47;;;;;;;11.98;2.45;;;9.30;99.90;;;;;;5036333;28;20045;-65
2024/02/21 08:24:14;;;;;;;8.00;1.75;;;9.30;99.90;;;;;;5036502;28;20041;-66
2024/02/21 08:26:41;;;;;;;8.57;2.88;;;9.30;99.90;;;;;;5036134;28;20132;-65
2024/02/21 08:29:08;;;;;;;6.70;1.85;;;9.30;99.90;;;;;;5036280;28;20041;-65
2024/02/21 08:31:35;;;;;;;9.13;1.95;;;9.40;99.90;;;;;;5036062;28;20041;-65
2024/02/21 08:34:03;;;;;;;7.95;2.00;;;9.40;99.90;;;;;;5034831;28;20378;-65
2024/02/21 08:36:30;;;;;;;9.15;1.70;;;9.40;99.90;;;;;;5036098;28;20037;-65
2024/02/21 08:38:57;;;;;;;6.90;1.80;;;9.40;99.90;;;;;;5033455;28;20419;-66
2024/02/21 08:41:24;;;;;;;9.00;2.03;;;9.40;99.90;;;;;;5028227;28;20045;-66
2024/02/21 08:44:08;;;;;;;8.15;2.60;;;9.40;99.90;;;;;;5035251;28;20124;-64
2024/02/21 08:46:34;;;;;;;7.05;1.73;;;9.40;99.90;;;;;;5035105;28;20045;-65
2024/02/21 08:49:01;;;;;;;9.82;2.60;;;9.40;99.90;;;;;;5034088;28;20457;-65
2024/02/21 08:51:28;;;;;;;8.30;1.67;;;9.40;99.90;;;;;;5035294;28;20061;-65
2024/02/21 08:53:55;;;;;;;10.43;1.80;;;9.40;99.90;;;;;;5035111;28;20045;-66
2024/02/21 08:56:22;;;;;;;8.05;2.05;;;9.40;99.90;;;;;;5034314;28;20033;-65
2024/02/21 08:58:49;;;;;;;6.07;1.63;;;9.40;99.90;;;;;;5034214;28;20494;-65
2024/02/21 09:01:16;;;;;;;6.00;1.40;;;9.40;99.90;;;;;;5034269;28;20046;-65
2024/02/21 09:03:43;;;;;;;7.65;1.38;;;9.50;99.90;;;;;;5035082;28;20076;-65
2024/02/21 09:06:10;;;;;;;7.25;1.55;;;9.50;99.90;;;;;;5035003;28;20046;-66
2024/02/21 09:08:37;;;;;;;9.57;2.05;;;9.50;99.90;;;;;;5035075;28;20041;-66
2024/02/21 09:11:04;;;;;;;5.05;1.25;;;9.50;99.90;;;;;;5033388;28;20042;-65
2024/02/21 09:13:31;;;;;;;7.65;1.50;;;9.60;99.90;;;;;;5034715;28;20046;-65
2024/02/21 09:15:58;;;;;;;7.97;1.55;;;9.60;99.90;;;;;;5034704;28;20041;-64
2024/02/21 09:18:25;;;;;;;4.95;1.20;;;9.60;99.90;;;;;;5034450;28;20038;-65
2024/02/21 09:20:52;;;;;;;9.32;1.40;;;9.60;99.90;;;;;;5034254;28;20548;-65
2024/02/21 09:23:19;;;;;;;6.75;1.17;;;9.60;99.90;;;;;;5035954;28;20542;-65
2024/02/21 09:25:46;;;;;;;7.57;1.48;;;9.60;99.90;;;;;;5034495;28;20045;-66
2024/02/21 09:28:13;;;;;;;7.85;1.60;;;9.60;99.90;;;;;;5038743;28;20123;-63
2024/02/21 09:30:40;;;;;;;7.30;1.48;;;9.60;99.90;;;;;;5054262;28;20474;-63
2024/02/21 09:33:07;;;;;;;8.30;1.75;;;9.60;99.90;;;;;;5054279;28;20047;-64
2024/02/21 09:35:34;;;;;;;5.35;1.45;;;9.60;99.90;;;;;;5054418;28;20043;-63
2024/02/21 09:38:00;;;;;;;6.65;1.35;;;9.60;99.90;;;;;;5054774;28;20037;-63
2024/02/21 09:40:27;;;;;;;7.13;1.38;;;9.70;99.90;;;;;;5054801;28;20466;-63
2024/02/21 09:42:55;;;;;;;8.70;1.42;;;9.70;99.90;;;;;;5053854;28;20100;-66
2024/02/21 09:45:22;;;;;;;5.28;1.33;;;9.70;99.90;;;;;;5053509;28;20041;-65
2024/02/21 09:47:48;;;;;;;7.30;1.60;;;9.70;99.90;;;;;;5053440;28;20095;-65
2024/02/21 09:50:15;;;;;;;8.07;1.63;;;9.70;99.90;;;;;;5053306;28;20037;-65
2024/02/21 09:52:42;;;;;;;8.30;1.85;;;9.70;99.90;;;;;;5053558;28;20091;-65
2024/02/21 09:55:11;;;;;;;5.53;1.55;;;9.70;99.90;;;;;;5054493;28;20041;-65
2024/02/21 09:57:38;;;;;;;6.00;1.60;;;9.70;99.90;;;;;;5053513;28;20458;-65
2024/02/21 10:00:07;;;;;;;7.35;1.63;;;9.70;99.90;;;;;;5054546;28;20045;-66
2024/02/21 10:02:38;;;;;;;6.03;1.48;;;9.70;99.90;;;;;;5053113;28;20459;-66
2024/02/21 10:05:08;;;;;;;5.78;2.42;;;9.70;99.90;;;;;;5052953;28;20059;-65
2024/02/21 10:07:35;;;;;;;6.55;1.10;;;9.60;99.90;;;;;;5052906;28;20048;-66
2024/02/21 10:10:02;;;;;;;6.90;1.83;;;9.70;99.90;;;;;;5054179;28;20041;-66
2024/02/21 10:12:28;;;;;;;4.63;1.67;;;9.60;99.90;;;;;;5052895;28;20037;-66
2024/02/21 10:14:55;;;;;;;6.22;1.23;;;9.70;99.90;;;;;;5053820;28;20485;-65
2024/02/21 10:17:23;;;;;;;5.05;1.52;;;9.70;99.90;;;;;;5052741;28;20041;-64
2024/02/21 10:19:52;;;;;;;4.07;1.10;;;9.70;99.90;;;;;;5054050;28;20045;-65
2024/02/21 10:22:20;;;;;;;5.05;1.38;;;9.70;99.90;;;;;;5054208;28;20112;-65
2024/02/21 10:24:47;;;;;;;5.80;1.42;;;9.70;99.90;;;;;;5042711;28;20041;-65
2024/02/21 10:27:14;;;;;;;6.82;1.52;;;9.70;99.90;;;;;;5054109;28;20466;-65
2024/02/21 10:29:41;;;;;;;5.07;1.38;;;9.70;99.90;;;;;;5052374;28;20374;-65
2024/02/21 10:32:09;;;;;;;5.40;1.20;;;9.70;99.90;;;;;;5052618;28;20115;-65
2024/02/21 10:34:35;;;;;;;3.28;1.17;;;9.70;99.90;;;;;;5053940;28;20032;-67
2024/02/21 10:37:03;;;;;;;5.40;1.50;;;9.70;99.90;;;;;;5052646;28;20048;-66
2024/02/21 10:39:30;;;;;;;5.90;1.65;;;9.70;99.90;;;;;;5053376;28;20076;-67
2024/02/21 10:41:59;;;;;;;3.83;1.17;;;9.70;99.90;;;;;;5052621;28;20043;-66
2024/02/21 10:44:26;;;;;;;3.67;1.00;;;9.70;99.90;;;;;;5053749;28;20405;-67
2024/02/21 10:46:52;;;;;;;3.15;0.90;;;9.70;99.90;;;;;;5052254;28;20049;-67
2024/02/21 10:49:19;;;;;;;4.90;1.77;;;9.70;99.90;;;;;;5053686;28;20045;-67
2024/02/21 10:51:46;;;;;;;4.75;1.25;;;9.80;99.90;;;;;;5052459;28;20053;-67
2024/02/21 10:54:13;;;;;;;4.55;1.58;;;9.80;99.90;;;;;;5053540;28;20052;-67
2024/02/21 10:56:41;;;;;;;2.90;0.70;;;9.80;99.90;;;;;;5052114;28;20041;-66
2024/02/21 10:59:08;;;;;;;3.92;0.85;;;9.80;99.90;;;;;;5052531;28;20143;-66
2024/02/21 11:01:38;;;;;;;5.40;1.05;;;9.80;99.90;;;;;;5051620;28;20045;-66
2024/02/21 11:04:06;;;;;;;3.17;0.77;;;9.80;99.90;;;;;;5052184;28;20040;-66
2024/02/21 11:06:33;;;;;;;3.60;1.10;;;9.80;99.90;;;;;;5052858;28;20048;-66
2024/02/21 11:09:00;;;;;;;2.75;0.80;;;9.80;99.90;;;;;;5050538;28;20068;-65
2024/02/21 11:11:27;;;;;;;3.42;0.80;;;9.90;99.90;;;;;;5053576;28;20037;-66
2024/02/21 11:14:05;;;;;;;3.72;0.93;;;9.90;99.90;;;;;;5051660;28;20444;-66
2024/02/21 11:16:32;;;;;;;3.53;0.90;;;9.90;99.90;;;;;;5053646;28;20398;-66
2024/02/21 11:19:00;;;;;;;3.25;1.00;;;9.90;99.90;;;;;;5053295;28;20073;-64
2024/02/21 11:21:27;;;;;;;3.60;0.80;;;9.90;99.90;;;;;;5050863;28;20455;-64
2024/02/21 11:23:53;;;;;;;4.35;0.90;;;9.90;99.90;;;;;;5051654;28;20140;-64
2024/02/21 11:26:20;;;;;;;3.60;0.90;;;10.00;99.90;;;;;;5053049;28;20033;-64
2024/02/21 11:28:47;;;;;;;3.28;0.70;;;10.00;99.90;;;;;;5050324;28;20122;-65
2024/02/21 11:31:14;;;;;;;3.40;0.77;;;10.00;99.90;;;;;;5052977;28;20129;-66
2024/02/21 11:33:41;;;;;;;2.28;0.68;;;10.00;99.90;;;;;;5051676;28;20044;-65
2024/02/21 11:36:08;;;;;;;2.95;0.75;;;10.10;99.90;;;;;;5053271;28;20386;-65
2024/02/21 11:38:35;;;;;;;2.38;0.70;;;10.00;99.90;;;;;;5053299;28;20461;-65
2024/02/21 11:41:02;;;;;;;2.00;0.63;;;10.10;99.90;;;;;;5052104;28;20500;-66
2024/02/21 11:43:29;;;;;;;2.95;0.68;;;10.10;99.90;;;;;;5053022;28;20425;-65
2024/02/21 11:45:56;;;;;;;1.48;0.40;;;10.10;99.90;;;;;;5051830;28;20064;-65
2024/02/21 11:48:23;;;;;;;4.80;0.82;;;10.10;99.90;;;;;;5053086;28;20448;-66
2024/02/21 11:50:50;;;;;;;1.98;0.70;;;10.20;99.90;;;;;;5050510;28;20037;-66
2024/02/21 11:53:17;;;;;;;2.50;0.50;;;10.10;99.90;;;;;;5056345;28;20040;-66
2024/02/21 11:55:44;;;;;;;1.73;0.40;;;10.10;99.90;;;;;;5055518;28;20128;-66
2024/02/21 11:58:11;;;;;;;3.70;1.45;;;10.10;99.90;;;;;;5056818;28;20069;-66
2024/02/21 12:00:37;;;;;;;5.38;0.82;;;10.10;99.90;;;;;;5055507;28;20045;-66
2024/02/21 12:03:04;;;;;;;2.05;0.40;;;10.10;99.90;;;;;;5055714;28;20072;-66
2024/02/21 12:05:31;;;;;;;1.55;0.45;;;10.20;99.90;;;;;;5056494;28;20036;-66
2024/02/21 12:07:58;;;;;;;2.35;0.63;;;10.10;99.90;;;;;;5055398;28;20450;-66
2024/02/21 12:10:26;;;;;;;2.30;0.57;;;10.10;99.90;;;;;;5055404;28;20553;-66
2024/02/21 12:12:54;;;;;;;3.50;0.50;;;10.20;99.90;;;;;;5055674;28;20052;-65
2024/02/21 12:15:21;;;;;;;3.47;0.70;;;10.20;99.90;;;;;;5056198;28;20084;-66
2024/02/21 12:17:48;;;;;;;3.33;0.60;;;10.20;99.90;;;;;;5056276;28;20029;-66
2024/02/21 12:20:15;;;;;;;2.92;0.60;;;10.20;99.90;;;;;;5055238;28;20420;-66
2024/02/21 12:22:42;;;;;;;2.10;0.60;;;10.20;99.90;;;;;;5056005;28;20456;-66
2024/02/21 12:25:09;;;;;;;2.08;0.68;;;10.20;99.90;;;;;;5054965;28;20130;-66
2024/02/21 12:27:36;;;;;;;1.65;0.40;;;10.20;99.90;;;;;;5056219;28;20068;-66
2024/02/21 12:30:09;;;;;;;1.92;0.70;;;10.30;99.90;;;;;;5053629;28;20037;-65
2024/02/21 12:32:36;;;;;;;3.65;0.70;;;10.30;99.90;;;;;;5054745;28;20433;-65
2024/02/21 12:35:03;;;;;;;2.30;0.70;;;10.30;99.90;;;;;;5054513;28;20450;-65
2024/02/21 12:37:30;;;;;;;3.20;0.63;;;10.40;99.90;;;;;;5056141;28;20041;-65
2024/02/21 12:39:57;;;;;;;3.92;0.70;;;10.40;99.90;;;;;;5054837;28;20390;-65
2024/02/21 12:42:25;;;;;;;1.95;0.45;;;10.50;99.90;;;;;;5056231;28;20373;-65
2024/02/21 12:44:55;;;;;;;2.63;0.57;;;10.50;99.90;;;;;;5055761;28;20045;-65
2024/02/21 12:47:24;;;;;;;3.25;0.88;;;10.60;99.90;;;;;;5054679;28;20385;-65
2024/02/21 12:49:51;;;;;;;2.22;0.70;;;10.60;99.90;;;;;;5054399;28;20535;-65